F.D. Roosevelt, St. Eustatius

3:33 PM AST on January 26, 2015 (GMT -0400)
IDUTCHCA4 | Change Station
CLOSE
Current Station
Personal Weather Station
Location: Oranjestad, DUTCH CARIBBEAN
Elevation: 575 ft
Nearby Weather Stations

Elev 575 ft 17.48 °N, 62.97 °W | Updated 39 seconds ago

Mostly Cloudy
Mostly Cloudy
82.9 °F
Feels Like 89 °F
N
4.0
Wind Variable Wind from West

Today
High -- | Low -- °F
--% Chance of Precip.
Yesterday
High -- | Low -- °F
Precip. -- in
6:45 AM 6:03 PM
Waxing Crescent, 46% visible
Pressure 29.98 in
Visibility 6.2 miles
Clouds Mostly Cloudy 2100 ft
Heat Index 89 °F
Dew Point 73 °F
Humidity 72%
Rainfall 0.00 in
Snow Depth Not available.
UV 2.9 out of 12
Pollen Not available.
Air Quality Not available.
Flu Activity Not available.
METAR TKPK 261900Z 09014KT 9999 BKN021 28/21 Q1015

More Conditions Fewer Conditions

Pressure 29.98 in
Visibility 6.2 miles
Clouds Mostly Cloudy 2100 ft
Heat Index 89 °F
Dew Point 73 °F
Humidity 72%
Rainfall 0.00 in
Snow Depth Not available.
UV 2.9 out of 12
Pollen Not available.
Air Quality Not available.
Flu Activity Not available.
METAR TKPK 261900Z 09014KT 9999 BKN021 28/21 Q1015

More Conditions Fewer Conditions

10-Day Weather Forecast

Almanac

Astronomy

Jan. 26, 2015 Rise Set
Actual Time
Civil Twilight
Nautical Twilight
Astronomical Twilight
Moon
Length of Visible Light
Length of Day
Tomorrow will be .
, % of the Moon is Illuminated

Today's Extremes

Country Highs Country Lows

Community

WunderPhotos

Upload Photos

1,790,338 photos uploaded!

WunderBlogs® & News

Nearby

Air Quality

  Air Quality AQ Index Pollutant
Not available.

Snow Depth

Station Depth Elevation

Earthquake Activity

City Distance Mag. Time & Date
Minimum magnitude displayed is 2.5.

Coastal Water Temperatures

Place Temperature

Nearby Weather Stations